sensor_id;sensor_type;location;lat;lon;timestamp;temperature;humidity
16134;DHT22;8172;45.018;5.972;2023-06-24T00:02:49;17.70;63.10
16134;DHT22;8172;45.018;5.972;2023-06-24T00:07:58;17.70;63.10
16134;DHT22;8172;45.018;5.972;2023-06-24T00:13:07;17.60;63.10
16134;DHT22;8172;45.018;5.972;2023-06-24T00:18:15;17.60;63.10
16134;DHT22;8172;45.018;5.972;2023-06-24T00:23:24;17.60;63.30
16134;DHT22;8172;45.018;5.972;2023-06-24T00:28:31;17.50;63.30
16134;DHT22;8172;45.018;5.972;2023-06-24T00:33:39;17.50;63.40
16134;DHT22;8172;45.018;5.972;2023-06-24T00:38:46;17.50;63.40
16134;DHT22;8172;45.018;5.972;2023-06-24T00:43:55;17.50;63.50
16134;DHT22;8172;45.018;5.972;2023-06-24T00:49:03;17.40;63.60
16134;DHT22;8172;45.018;5.972;2023-06-24T00:54:10;17.40;63.70
16134;DHT22;8172;45.018;5.972;2023-06-24T00:59:18;17.40;63.70
16134;DHT22;8172;45.018;5.972;2023-06-24T01:04:26;17.30;63.80
16134;DHT22;8172;45.018;5.972;2023-06-24T01:09:33;17.30;63.80
16134;DHT22;8172;45.018;5.972;2023-06-24T01:14:41;17.30;63.80
16134;DHT22;8172;45.018;5.972;2023-06-24T01:25:02;17.30;63.70
16134;DHT22;8172;45.018;5.972;2023-06-24T01:35:19;17.20;63.30
16134;DHT22;8172;45.018;5.972;2023-06-24T01:40:28;17.00;63.50
16134;DHT22;8172;45.018;5.972;2023-06-24T01:45:41;17.00;63.80
16134;DHT22;8172;45.018;5.972;2023-06-24T01:50:51;16.90;64.00
16134;DHT22;8172;45.018;5.972;2023-06-24T01:55:58;16.90;64.20
16134;DHT22;8172;45.018;5.972;2023-06-24T02:01:08;16.90;64.20
16134;DHT22;8172;45.018;5.972;2023-06-24T02:06:15;16.90;64.20
16134;DHT22;8172;45.018;5.972;2023-06-24T02:11:24;16.80;64.20
16134;DHT22;8172;45.018;5.972;2023-06-24T02:16:33;16.80;64.50
16134;DHT22;8172;45.018;5.972;2023-06-24T02:21:43;16.80;64.50
16134;DHT22;8172;45.018;5.972;2023-06-24T02:26:51;16.80;64.70
16134;DHT22;8172;45.018;5.972;2023-06-24T02:32:00;16.80;64.60
16134;DHT22;8172;45.018;5.972;2023-06-24T02:37:08;16.80;64.50
16134;DHT22;8172;45.018;5.972;2023-06-24T02:42:15;16.70;64.50
16134;DHT22;8172;45.018;5.972;2023-06-24T02:47:25;16.70;64.60
16134;DHT22;8172;45.018;5.972;2023-06-24T02:52:33;16.70;64.70
16134;DHT22;8172;45.018;5.972;2023-06-24T02:57:43;16.60;64.60
16134;DHT22;8172;45.018;5.972;2023-06-24T03:02:53;16.60;64.70
16134;DHT22;8172;45.018;5.972;2023-06-24T03:08:01;16.60;64.70
16134;DHT22;8172;45.018;5.972;2023-06-24T03:13:11;16.50;64.80
16134;DHT22;8172;45.018;5.972;2023-06-24T03:18:20;16.50;64.70
16134;DHT22;8172;45.018;5.972;2023-06-24T03:23:27;16.50;64.80
16134;DHT22;8172;45.018;5.972;2023-06-24T03:28:36;16.50;64.90
16134;DHT22;8172;45.018;5.972;2023-06-24T03:33:45;16.50;64.90
16134;DHT22;8172;45.018;5.972;2023-06-24T03:38:53;16.50;65.00
16134;DHT22;8172;45.018;5.972;2023-06-24T03:44:01;16.50;64.90
16134;DHT22;8172;45.018;5.972;2023-06-24T03:49:10;16.50;64.80
16134;DHT22;8172;45.018;5.972;2023-06-24T03:54:17;16.40;64.60
16134;DHT22;8172;45.018;5.972;2023-06-24T03:59:26;16.30;64.60
16134;DHT22;8172;45.018;5.972;2023-06-24T04:04:34;16.20;64.80
16134;DHT22;8172;45.018;5.972;2023-06-24T04:09:42;16.20;64.80
16134;DHT22;8172;45.018;5.972;2023-06-24T04:14:49;16.10;65.10
16134;DHT22;8172;45.018;5.972;2023-06-24T04:19:57;16.00;65.10
16134;DHT22;8172;45.018;5.972;2023-06-24T04:25:06;16.00;65.30
16134;DHT22;8172;45.018;5.972;2023-06-24T04:30:13;15.90;65.40
16134;DHT22;8172;45.018;5.972;2023-06-24T04:35:20;15.90;65.60
16134;DHT22;8172;45.018;5.972;2023-06-24T04:40:28;15.90;65.60
16134;DHT22;8172;45.018;5.972;2023-06-24T04:45:36;15.90;65.80
16134;DHT22;8172;45.018;5.972;2023-06-24T04:50:44;15.90;66.00
16134;DHT22;8172;45.018;5.972;2023-06-24T04:55:51;15.80;66.10
16134;DHT22;8172;45.018;5.972;2023-06-24T05:01:01;15.80;66.30
16134;DHT22;8172;45.018;5.972;2023-06-24T05:06:14;15.80;66.30
16134;DHT22;8172;45.018;5.972;2023-06-24T05:11:22;15.80;66.40
16134;DHT22;8172;45.018;5.972;2023-06-24T05:16:29;15.90;66.50
16134;DHT22;8172;45.018;5.972;2023-06-24T05:21:36;15.90;66.60
16134;DHT22;8172;45.018;5.972;2023-06-24T05:26:48;15.90;66.80
16134;DHT22;8172;45.018;5.972;2023-06-24T05:31:54;15.90;66.80
16134;DHT22;8172;45.018;5.972;2023-06-24T05:37:01;16.00;66.90
16134;DHT22;8172;45.018;5.972;2023-06-24T05:42:08;16.10;67.00
16134;DHT22;8172;45.018;5.972;2023-06-24T05:47:15;16.10;66.80
16134;DHT22;8172;45.018;5.972;2023-06-24T05:52:24;16.00;66.90
16134;DHT22;8172;45.018;5.972;2023-06-24T05:57:31;16.00;67.20
16134;DHT22;8172;45.018;5.972;2023-06-24T06:02:39;15.90;67.50
16134;DHT22;8172;45.018;5.972;2023-06-24T06:07:46;15.90;67.70
16134;DHT22;8172;45.018;5.972;2023-06-24T06:12:55;16.00;67.80
16134;DHT22;8172;45.018;5.972;2023-06-24T06:18:03;16.00;67.80
16134;DHT22;8172;45.018;5.972;2023-06-24T06:23:10;16.10;67.90
16134;DHT22;8172;45.018;5.972;2023-06-24T06:28:17;16.10;68.00
16134;DHT22;8172;45.018;5.972;2023-06-24T06:33:25;16.10;68.10
16134;DHT22;8172;45.018;5.972;2023-06-24T06:38:33;16.10;68.00
16134;DHT22;8172;45.018;5.972;2023-06-24T06:43:40;16.10;68.00
16134;DHT22;8172;45.018;5.972;2023-06-24T06:48:47;16.10;68.00
16134;DHT22;8172;45.018;5.972;2023-06-24T06:53:55;16.10;68.10
16134;DHT22;8172;45.018;5.972;2023-06-24T06:59:02;16.20;68.20
16134;DHT22;8172;45.018;5.972;2023-06-24T07:04:09;16.20;68.50
16134;DHT22;8172;45.018;5.972;2023-06-24T07:09:17;16.40;68.70
16134;DHT22;8172;45.018;5.972;2023-06-24T07:14:24;16.60;69.00
16134;DHT22;8172;45.018;5.972;2023-06-24T07:19:31;16.80;68.90
16134;DHT22;8172;45.018;5.972;2023-06-24T07:24:39;17.10;68.70
16134;DHT22;8172;45.018;5.972;2023-06-24T07:29:46;17.40;68.70
16134;DHT22;8172;45.018;5.972;2023-06-24T07:34:54;17.60;68.20
16134;DHT22;8172;45.018;5.972;2023-06-24T07:40:01;17.70;67.80
16134;DHT22;8172;45.018;5.972;2023-06-24T07:45:10;17.70;67.70
16134;DHT22;8172;45.018;5.972;2023-06-24T07:50:17;17.70;67.80
16134;DHT22;8172;45.018;5.972;2023-06-24T07:55:24;17.60;67.80
16134;DHT22;8172;45.018;5.972;2023-06-24T08:00:32;17.60;68.10
16134;DHT22;8172;45.018;5.972;2023-06-24T08:05:49;17.50;68.00
16134;DHT22;8172;45.018;5.972;2023-06-24T08:10:56;17.50;68.40
16134;DHT22;8172;45.018;5.972;2023-06-24T08:16:03;17.60;68.80
16134;DHT22;8172;45.018;5.972;2023-06-24T08:21:10;17.80;68.90
16134;DHT22;8172;45.018;5.972;2023-06-24T08:26:19;17.90;68.70
16134;DHT22;8172;45.018;5.972;2023-06-24T08:31:28;18.00;68.30
16134;DHT22;8172;45.018;5.972;2023-06-24T08:36:35;18.10;68.00
16134;DHT22;8172;45.018;5.972;2023-06-24T08:41:43;18.10;67.20
16134;DHT22;8172;45.018;5.972;2023-06-24T08:46:50;18.20;67.70
16134;DHT22;8172;45.018;5.972;2023-06-24T08:52:00;18.50;68.00
16134;DHT22;8172;45.018;5.972;2023-06-24T08:57:06;18.80;68.10
16134;DHT22;8172;45.018;5.972;2023-06-24T09:02:16;18.90;67.60
16134;DHT22;8172;45.018;5.972;2023-06-24T09:07:26;19.10;67.40
16134;DHT22;8172;45.018;5.972;2023-06-24T09:12:35;19.20;67.60
16134;DHT22;8172;45.018;5.972;2023-06-24T09:17:44;19.30;67.40
16134;DHT22;8172;45.018;5.972;2023-06-24T09:23:01;19.30;65.80
16134;DHT22;8172;45.018;5.972;2023-06-24T09:28:09;19.40;66.00
16134;DHT22;8172;45.018;5.972;2023-06-24T09:33:17;19.60;65.80
16134;DHT22;8172;45.018;5.972;2023-06-24T09:43:37;19.80;65.00
16134;DHT22;8172;45.018;5.972;2023-06-24T09:48:45;19.80;65.80
16134;DHT22;8172;45.018;5.972;2023-06-24T09:53:54;19.70;65.50
16134;DHT22;8172;45.018;5.972;2023-06-24T09:59:04;19.70;66.30
16134;DHT22;8172;45.018;5.972;2023-06-24T10:04:16;19.70;66.20
16134;DHT22;8172;45.018;5.972;2023-06-24T10:09:22;19.80;66.10
16134;DHT22;8172;45.018;5.972;2023-06-24T10:14:30;19.80;65.90
16134;DHT22;8172;45.018;5.972;2023-06-24T10:19:39;19.90;65.80
16134;DHT22;8172;45.018;5.972;2023-06-24T10:24:48;19.90;65.60
16134;DHT22;8172;45.018;5.972;2023-06-24T10:29:55;20.00;66.00
16134;DHT22;8172;45.018;5.972;2023-06-24T10:35:04;20.20;66.10
16134;DHT22;8172;45.018;5.972;2023-06-24T10:40:11;20.30;65.60
16134;DHT22;8172;45.018;5.972;2023-06-24T10:45:19;20.40;65.60
16134;DHT22;8172;45.018;5.972;2023-06-24T10:50:27;20.40;66.20
16134;DHT22;8172;45.018;5.972;2023-06-24T10:55:35;20.50;66.70
16134;DHT22;8172;45.018;5.972;2023-06-24T11:00:43;20.70;65.80
16134;DHT22;8172;45.018;5.972;2023-06-24T11:05:54;20.80;66.00
16134;DHT22;8172;45.018;5.972;2023-06-24T11:11:02;21.00;65.70
16134;DHT22;8172;45.018;5.972;2023-06-24T11:16:10;21.10;65.00
16134;DHT22;8172;45.018;5.972;2023-06-24T11:21:17;21.30;66.10
16134;DHT22;8172;45.018;5.972;2023-06-24T11:26:25;21.40;64.80
16134;DHT22;8172;45.018;5.972;2023-06-24T11:31:32;21.50;64.50
16134;DHT22;8172;45.018;5.972;2023-06-24T11:36:40;21.70;64.40
16134;DHT22;8172;45.018;5.972;2023-06-24T11:41:48;21.80;64.70
16134;DHT22;8172;45.018;5.972;2023-06-24T11:52:06;21.90;64.10
16134;DHT22;8172;45.018;5.972;2023-06-24T11:57:14;21.90;64.30
16134;DHT22;8172;45.018;5.972;2023-06-24T12:02:21;21.90;63.30
16134;DHT22;8172;45.018;5.972;2023-06-24T12:07:28;21.90;64.10
16134;DHT22;8172;45.018;5.972;2023-06-24T12:12:36;22.00;64.60
16134;DHT22;8172;45.018;5.972;2023-06-24T12:17:43;22.10;63.10
16134;DHT22;8172;45.018;5.972;2023-06-24T12:22:51;22.20;63.90
16134;DHT22;8172;45.018;5.972;2023-06-24T12:27:58;22.20;62.60
16134;DHT22;8172;45.018;5.972;2023-06-24T12:33:06;22.30;63.10
16134;DHT22;8172;45.018;5.972;2023-06-24T12:38:15;22.40;63.10
16134;DHT22;8172;45.018;5.972;2023-06-24T12:43:22;22.50;62.90
16134;DHT22;8172;45.018;5.972;2023-06-24T12:48:30;22.60;62.40
16134;DHT22;8172;45.018;5.972;2023-06-24T12:53:37;22.80;62.80
16134;DHT22;8172;45.018;5.972;2023-06-24T12:58:44;22.90;62.40
16134;DHT22;8172;45.018;5.972;2023-06-24T13:03:51;23.00;62.90
16134;DHT22;8172;45.018;5.972;2023-06-24T13:08:59;23.20;62.90
16134;DHT22;8172;45.018;5.972;2023-06-24T13:14:06;23.20;62.50
16134;DHT22;8172;45.018;5.972;2023-06-24T13:19:14;23.30;62.40
16134;DHT22;8172;45.018;5.972;2023-06-24T13:24:24;23.30;61.70
16134;DHT22;8172;45.018;5.972;2023-06-24T13:29:31;23.40;61.90
16134;DHT22;8172;45.018;5.972;2023-06-24T13:34:40;23.40;62.10
16134;DHT22;8172;45.018;5.972;2023-06-24T13:39:48;23.50;60.70
16134;DHT22;8172;45.018;5.972;2023-06-24T13:44:56;23.50;60.80
16134;DHT22;8172;45.018;5.972;2023-06-24T13:50:04;23.50;61.00
16134;DHT22;8172;45.018;5.972;2023-06-24T13:55:12;23.60;60.70
16134;DHT22;8172;45.018;5.972;2023-06-24T14:00:19;23.60;60.80
16134;DHT22;8172;45.018;5.972;2023-06-24T14:05:27;23.70;60.70
16134;DHT22;8172;45.018;5.972;2023-06-24T14:10:34;23.80;59.90
16134;DHT22;8172;45.018;5.972;2023-06-24T14:15:57;23.80;60.30
16134;DHT22;8172;45.018;5.972;2023-06-24T14:21:06;23.80;60.30
16134;DHT22;8172;45.018;5.972;2023-06-24T14:26:15;24.00;60.50
16134;DHT22;8172;45.018;5.972;2023-06-24T14:31:23;24.10;60.10
16134;DHT22;8172;45.018;5.972;2023-06-24T14:36:30;24.10;59.80
16134;DHT22;8172;45.018;5.972;2023-06-24T14:41:38;24.10;59.40
16134;DHT22;8172;45.018;5.972;2023-06-24T14:46:49;24.10;59.50
16134;DHT22;8172;45.018;5.972;2023-06-24T14:52:00;24.20;59.60
16134;DHT22;8172;45.018;5.972;2023-06-24T14:57:08;24.30;59.60
16134;DHT22;8172;45.018;5.972;2023-06-24T15:02:15;24.30;58.80
16134;DHT22;8172;45.018;5.972;2023-06-24T15:07:23;24.40;58.80
16134;DHT22;8172;45.018;5.972;2023-06-24T15:12:30;24.60;59.60
16134;DHT22;8172;45.018;5.972;2023-06-24T15:17:41;24.90;58.60
16134;DHT22;8172;45.018;5.972;2023-06-24T15:22:50;25.00;58.20
16134;DHT22;8172;45.018;5.972;2023-06-24T15:27:58;25.10;57.90
16134;DHT22;8172;45.018;5.972;2023-06-24T15:33:05;25.10;57.80
16134;DHT22;8172;45.018;5.972;2023-06-24T15:38:13;25.10;57.30
16134;DHT22;8172;45.018;5.972;2023-06-24T15:43:21;25.00;57.00
16134;DHT22;8172;45.018;5.972;2023-06-24T15:48:28;25.00;56.60
16134;DHT22;8172;45.018;5.972;2023-06-24T15:53:36;25.00;57.30
16134;DHT22;8172;45.018;5.972;2023-06-24T15:58:43;25.00;56.50
16134;DHT22;8172;45.018;5.972;2023-06-24T16:03:51;24.90;56.30
16134;DHT22;8172;45.018;5.972;2023-06-24T16:08:58;25.00;56.50
16134;DHT22;8172;45.018;5.972;2023-06-24T16:14:07;25.20;56.30
16134;DHT22;8172;45.018;5.972;2023-06-24T16:19:14;25.10;56.20
16134;DHT22;8172;45.018;5.972;2023-06-24T16:24:22;25.00;55.80
16134;DHT22;8172;45.018;5.972;2023-06-24T16:29:29;24.60;56.10
16134;DHT22;8172;45.018;5.972;2023-06-24T16:34:36;24.30;55.90
16134;DHT22;8172;45.018;5.972;2023-06-24T16:39:43;24.10;56.40
16134;DHT22;8172;45.018;5.972;2023-06-24T16:44:51;23.90;56.70
16134;DHT22;8172;45.018;5.972;2023-06-24T16:50:01;23.70;56.70
16134;DHT22;8172;45.018;5.972;2023-06-24T16:55:09;23.50;56.70
16134;DHT22;8172;45.018;5.972;2023-06-24T17:00:18;23.40;57.10
16134;DHT22;8172;45.018;5.972;2023-06-24T17:05:25;23.20;57.40
16134;DHT22;8172;45.018;5.972;2023-06-24T17:10:33;23.10;57.80
16134;DHT22;8172;45.018;5.972;2023-06-24T17:15:41;22.80;58.20
16134;DHT22;8172;45.018;5.972;2023-06-24T17:20:48;22.70;58.40
16134;DHT22;8172;45.018;5.972;2023-06-24T17:26:00;22.40;59.10
16134;DHT22;8172;45.018;5.972;2023-06-24T17:31:24;22.30;59.50
16134;DHT22;8172;45.018;5.972;2023-06-24T17:36:32;22.00;60.10
16134;DHT22;8172;45.018;5.972;2023-06-24T17:41:39;21.90;60.40
16134;DHT22;8172;45.018;5.972;2023-06-24T17:46:47;21.70;60.80
16134;DHT22;8172;45.018;5.972;2023-06-24T17:51:54;21.60;61.00
16134;DHT22;8172;45.018;5.972;2023-06-24T17:57:02;21.50;61.20
16134;DHT22;8172;45.018;5.972;2023-06-24T18:02:09;21.40;61.50
16134;DHT22;8172;45.018;5.972;2023-06-24T18:07:17;21.30;61.60
16134;DHT22;8172;45.018;5.972;2023-06-24T18:12:26;21.20;61.80
16134;DHT22;8172;45.018;5.972;2023-06-24T18:17:33;21.20;61.90
16134;DHT22;8172;45.018;5.972;2023-06-24T18:22:40;21.20;62.20
16134;DHT22;8172;45.018;5.972;2023-06-24T18:27:47;21.20;62.30
16134;DHT22;8172;45.018;5.972;2023-06-24T18:32:54;21.10;62.40
16134;DHT22;8172;45.018;5.972;2023-06-24T18:38:02;21.10;62.40
16134;DHT22;8172;45.018;5.972;2023-06-24T18:43:10;21.10;62.40
16134;DHT22;8172;45.018;5.972;2023-06-24T18:48:18;21.10;62.50
16134;DHT22;8172;45.018;5.972;2023-06-24T18:53:27;21.00;62.60
16134;DHT22;8172;45.018;5.972;2023-06-24T18:58:35;21.00;62.60
16134;DHT22;8172;45.018;5.972;2023-06-24T19:03:43;21.00;62.70
16134;DHT22;8172;45.018;5.972;2023-06-24T19:08:51;20.90;62.90
16134;DHT22;8172;45.018;5.972;2023-06-24T19:13:59;20.90;63.00
16134;DHT22;8172;45.018;5.972;2023-06-24T19:19:07;20.80;63.20
16134;DHT22;8172;45.018;5.972;2023-06-24T19:24:16;20.80;63.20
16134;DHT22;8172;45.018;5.972;2023-06-24T19:29:25;20.70;63.30
16134;DHT22;8172;45.018;5.972;2023-06-24T19:34:33;20.60;63.30
16134;DHT22;8172;45.018;5.972;2023-06-24T19:39:42;20.40;63.50
16134;DHT22;8172;45.018;5.972;2023-06-24T19:44:50;20.30;63.60
16134;DHT22;8172;45.018;5.972;2023-06-24T19:49:57;20.10;63.80
16134;DHT22;8172;45.018;5.972;2023-06-24T19:55:05;20.10;63.90
16134;DHT22;8172;45.018;5.972;2023-06-24T20:00:13;20.00;64.10
16134;DHT22;8172;45.018;5.972;2023-06-24T20:05:20;20.00;64.10
16134;DHT22;8172;45.018;5.972;2023-06-24T20:10:29;19.90;64.20
16134;DHT22;8172;45.018;5.972;2023-06-24T20:15:38;19.90;64.40
16134;DHT22;8172;45.018;5.972;2023-06-24T20:20:50;19.90;64.50
16134;DHT22;8172;45.018;5.972;2023-06-24T20:26:00;19.90;64.40
16134;DHT22;8172;45.018;5.972;2023-06-24T20:31:07;19.90;64.40
16134;DHT22;8172;45.018;5.972;2023-06-24T20:36:16;19.90;64.50
16134;DHT22;8172;45.018;5.972;2023-06-24T20:41:24;19.90;64.60
16134;DHT22;8172;45.018;5.972;2023-06-24T20:46:33;19.90;64.60
16134;DHT22;8172;45.018;5.972;2023-06-24T20:51:41;19.90;64.50
16134;DHT22;8172;45.018;5.972;2023-06-24T20:56:50;19.80;64.40
16134;DHT22;8172;45.018;5.972;2023-06-24T21:01:57;19.70;64.50
16134;DHT22;8172;45.018;5.972;2023-06-24T21:07:05;19.70;64.60
16134;DHT22;8172;45.018;5.972;2023-06-24T21:12:14;19.70;64.80
16134;DHT22;8172;45.018;5.972;2023-06-24T21:17:22;19.70;64.80
16134;DHT22;8172;45.018;5.972;2023-06-24T21:22:29;19.70;64.90
16134;DHT22;8172;45.018;5.972;2023-06-24T21:27:38;19.60;64.90
16134;DHT22;8172;45.018;5.972;2023-06-24T21:32:46;19.60;64.80
16134;DHT22;8172;45.018;5.972;2023-06-24T21:37:53;19.50;64.60
16134;DHT22;8172;45.018;5.972;2023-06-24T21:43:01;19.50;64.90
16134;DHT22;8172;45.018;5.972;2023-06-24T21:48:08;19.50;65.00
16134;DHT22;8172;45.018;5.972;2023-06-24T21:53:17;19.50;65.00
16134;DHT22;8172;45.018;5.972;2023-06-24T21:58:24;19.50;65.10
16134;DHT22;8172;45.018;5.972;2023-06-24T22:03:32;19.40;65.20
16134;DHT22;8172;45.018;5.972;2023-06-24T22:08:40;19.40;65.30
16134;DHT22;8172;45.018;5.972;2023-06-24T22:13:48;19.40;65.30
16134;DHT22;8172;45.018;5.972;2023-06-24T22:18:55;19.40;65.50
16134;DHT22;8172;45.018;5.972;2023-06-24T22:24:02;19.30;65.50
16134;DHT22;8172;45.018;5.972;2023-06-24T22:29:10;19.30;65.70
16134;DHT22;8172;45.018;5.972;2023-06-24T22:34:18;19.30;65.80
16134;DHT22;8172;45.018;5.972;2023-06-24T22:39:25;19.20;65.90
16134;DHT22;8172;45.018;5.972;2023-06-24T22:44:34;19.20;66.00
16134;DHT22;8172;45.018;5.972;2023-06-24T22:49:41;19.20;66.00
16134;DHT22;8172;45.018;5.972;2023-06-24T22:54:50;19.10;65.90
16134;DHT22;8172;45.018;5.972;2023-06-24T22:59:58;19.10;66.10
16134;DHT22;8172;45.018;5.972;2023-06-24T23:05:08;19.00;66.20
16134;DHT22;8172;45.018;5.972;2023-06-24T23:10:19;19.00;66.30
16134;DHT22;8172;45.018;5.972;2023-06-24T23:15:27;19.00;66.30
16134;DHT22;8172;45.018;5.972;2023-06-24T23:20:35;19.00;66.40
16134;DHT22;8172;45.018;5.972;2023-06-24T23:25:45;19.00;66.40
16134;DHT22;8172;45.018;5.972;2023-06-24T23:30:54;19.00;66.60
16134;DHT22;8172;45.018;5.972;2023-06-24T23:36:02;19.00;66.70
16134;DHT22;8172;45.018;5.972;2023-06-24T23:41:10;19.00;66.70
16134;DHT22;8172;45.018;5.972;2023-06-24T23:46:17;19.00;66.60
16134;DHT22;8172;45.018;5.972;2023-06-24T23:51:25;18.90;66.60
16134;DHT22;8172;45.018;5.972;2023-06-24T23:56:32;18.90;66.60
